Time;durP1;ratioP1;P1;durP2;ratioP2;P2;SDS_P1;SDS_P2;PMS_P1;PMS_P2;Temp;Humidity;BMP_temperature;BMP_pressure;BME280_temperature;BME280_humidity;BME280_pressure;Samples;Min_cycle;Max_cycle;Signal;HPM_P1;HPM_P2
2023/09/30 00:01:52;;;;;;;5.75;4.90;;;24.30;99.90;;;;;;5050666;28;20654;-78
2023/09/30 00:04:22;;;;;;;7.35;5.22;;;24.40;99.90;;;;;;5049483;28;20193;-75
2023/09/30 00:06:53;;;;;;;5.70;5.10;;;24.50;99.90;;;;;;5051518;28;20649;-84
2023/09/30 00:09:24;;;;;;;6.22;5.10;;;24.60;99.90;;;;;;5052774;28;20276;-81
2023/09/30 00:12:00;;;;;;;7.10;5.20;;;24.60;99.90;;;;;;5047648;28;20903;-84
2023/09/30 00:14:32;;;;;;;6.35;5.00;;;24.70;99.90;;;;;;5050445;28;20197;-73
2023/09/30 00:17:02;;;;;;;7.15;5.00;;;24.80;99.90;;;;;;5045938;28;20220;-82
2023/09/30 00:19:34;;;;;;;5.93;4.70;;;24.90;99.90;;;;;;5037929;28;20200;-76
2023/09/30 00:22:05;;;;;;;6.90;5.13;;;24.90;99.90;;;;;;5037209;28;20465;-77
2023/09/30 00:24:35;;;;;;;5.55;4.72;;;24.90;99.90;;;;;;5049440;28;20205;-75
2023/09/30 00:27:08;;;;;;;6.50;4.80;;;25.00;99.90;;;;;;5046645;28;20209;-80
2023/09/30 00:29:39;;;;;;;6.03;4.70;;;25.20;99.90;;;;;;5049003;28;20213;-86
2023/09/30 00:32:10;;;;;;;6.45;4.38;;;25.30;99.90;;;;;;5047352;28;20202;-75
2023/09/30 00:34:40;;;;;;;7.15;4.95;;;25.40;99.90;;;;;;5045267;28;20193;-79
2023/09/30 00:37:11;;;;;;;5.78;4.95;;;25.50;99.90;;;;;;5050815;28;20224;-78
2023/09/30 00:39:42;;;;;;;6.05;5.07;;;25.70;99.90;;;;;;5049967;28;20221;-77
2023/09/30 00:42:14;;;;;;;6.13;4.85;;;25.80;99.90;;;;;;5044596;28;20213;-86
2023/09/30 00:44:45;;;;;;;6.60;4.93;;;25.90;99.90;;;;;;5046729;28;20197;-78
2023/09/30 00:47:17;;;;;;;6.18;5.00;;;26.10;99.90;;;;;;5043887;28;20197;-79
2023/09/30 00:49:47;;;;;;;5.40;4.60;;;26.20;99.90;;;;;;5048481;28;20243;-86
2023/09/30 00:52:19;;;;;;;5.40;4.35;;;26.30;99.90;;;;;;5042111;28;20189;-87
2023/09/30 00:54:51;;;;;;;5.32;4.30;;;26.40;99.90;;;;;;5049565;28;20205;-88
2023/09/30 00:57:24;;;;;;;6.18;4.68;;;26.40;99.90;;;;;;5050447;28;20214;-82
2023/09/30 00:59:56;;;;;;;5.13;4.40;;;26.50;99.90;;;;;;5045628;28;20216;-83
2023/09/30 01:02:27;;;;;;;5.28;4.10;;;26.50;99.90;;;;;;5045073;28;20194;-78
2023/09/30 01:05:00;;;;;;;4.82;4.32;;;26.40;99.90;;;;;;5051186;28;20190;-75
2023/09/30 01:07:31;;;;;;;5.60;4.63;;;26.60;99.90;;;;;;5050340;28;20218;-80
2023/09/30 01:10:03;;;;;;;5.88;4.28;;;26.70;99.90;;;;;;5051945;28;20225;-74
2023/09/30 01:12:37;;;;;;;4.93;4.30;;;26.70;99.90;;;;;;5050210;28;20661;-81
2023/09/30 01:15:08;;;;;;;5.70;4.13;;;26.90;99.90;;;;;;5053343;28;20199;-77
2023/09/30 01:17:40;;;;;;;7.47;4.70;;;26.80;99.90;;;;;;5050249;28;20350;-75
2023/09/30 01:20:12;;;;;;;5.35;4.32;;;27.00;99.90;;;;;;5049578;28;20212;-81
2023/09/30 01:22:47;;;;;;;5.43;3.97;;;27.20;99.90;;;;;;5055735;28;20260;-78
2023/09/30 01:25:18;;;;;;;7.70;4.53;;;27.30;99.90;;;;;;5063917;28;20193;-79
2023/09/30 01:27:51;;;;;;;6.32;4.03;;;27.40;99.90;;;;;;5065229;28;20198;-78
2023/09/30 01:30:22;;;;;;;5.72;3.80;;;27.40;99.90;;;;;;5064831;28;20556;-75
2023/09/30 01:32:53;;;;;;;5.97;3.60;;;27.50;99.90;;;;;;5064876;28;20331;-78
2023/09/30 01:35:24;;;;;;;6.10;3.70;;;27.10;99.90;;;;;;5069722;28;20193;-74
2023/09/30 01:37:57;;;;;;;6.57;3.95;;;27.20;99.90;;;;;;5063725;28;20615;-75
2023/09/30 01:40:28;;;;;;;5.47;4.15;;;27.20;99.90;;;;;;5058567;28;20271;-73
2023/09/30 01:43:00;;;;;;;4.93;4.15;;;27.20;99.90;;;;;;5060492;28;20216;-76
2023/09/30 01:45:31;;;;;;;6.43;4.45;;;26.90;99.90;;;;;;5072974;28;20215;-76
2023/09/30 01:48:02;;;;;;;6.97;4.63;;;26.90;99.90;;;;;;5060949;28;20197;-75
2023/09/30 01:50:33;;;;;;;6.18;4.13;;;27.00;99.90;;;;;;5071978;28;20640;-77
2023/09/30 01:53:06;;;;;;;7.65;4.40;;;26.90;99.90;;;;;;5061915;28;20193;-76
2023/09/30 01:55:37;;;;;;;8.85;4.85;;;27.00;99.90;;;;;;5064231;28;20186;-83
2023/09/30 01:58:11;;;;;;;7.85;4.80;;;26.90;99.90;;;;;;5070667;28;20596;-83
2023/09/30 02:00:41;;;;;;;5.97;4.80;;;26.90;99.90;;;;;;5055471;28;20201;-80
2023/09/30 02:03:12;;;;;;;9.75;5.32;;;27.00;99.90;;;;;;5060198;28;20652;-79
2023/09/30 02:05:43;;;;;;;5.82;4.85;;;27.20;99.90;;;;;;5057426;28;20677;-76
2023/09/30 02:08:18;;;;;;;8.88;5.30;;;27.30;99.90;;;;;;5071097;28;20262;-73
2023/09/30 02:10:48;;;;;;;10.15;4.85;;;27.10;99.90;;;;;;5053817;28;20234;-78
2023/09/30 02:13:19;;;;;;;7.10;4.80;;;27.00;99.90;;;;;;5057150;28;20197;-74
2023/09/30 02:15:50;;;;;;;9.75;5.03;;;27.00;99.90;;;;;;5051680;28;20208;-77
2023/09/30 02:18:21;;;;;;;8.73;5.00;;;27.10;99.90;;;;;;5064816;28;20681;-77
2023/09/30 02:20:53;;;;;;;7.55;4.88;;;27.00;99.90;;;;;;5065431;28;20208;-74
2023/09/30 02:23:25;;;;;;;10.02;4.80;;;26.90;99.90;;;;;;5053730;28;20197;-74
2023/09/30 02:25:56;;;;;;;7.78;4.65;;;27.00;99.90;;;;;;5065757;28;20565;-78
2023/09/30 02:28:27;;;;;;;9.32;4.80;;;27.10;99.90;;;;;;5057150;28;20213;-72
2023/09/30 02:30:57;;;;;;;8.68;4.70;;;27.00;99.90;;;;;;5067210;28;20203;-77
2023/09/30 02:33:28;;;;;;;9.43;5.03;;;26.70;99.90;;;;;;5052036;28;20197;-79
2023/09/30 02:35:59;;;;;;;10.00;5.03;;;26.70;99.90;;;;;;5063160;28;20254;-77
2023/09/30 02:38:32;;;;;;;7.03;5.07;;;26.70;99.90;;;;;;5057668;28;20235;-78
2023/09/30 02:41:03;;;;;;;8.27;4.85;;;26.90;99.90;;;;;;5054568;28;20200;-77
2023/09/30 02:43:33;;;;;;;7.25;5.00;;;26.90;99.90;;;;;;5063108;28;20286;-79
2023/09/30 02:46:04;;;;;;;7.25;4.78;;;26.90;99.90;;;;;;5053408;28;20277;-83
2023/09/30 02:48:35;;;;;;;8.35;4.60;;;26.90;99.90;;;;;;5051594;28;20228;-77
2023/09/30 02:51:06;;;;;;;7.25;4.40;;;27.00;99.90;;;;;;5040646;28;20212;-78
2023/09/30 02:53:38;;;;;;;6.57;4.63;;;26.90;99.90;;;;;;5054790;28;20204;-78
2023/09/30 02:56:09;;;;;;;7.47;4.43;;;26.90;99.90;;;;;;5048425;28;20200;-77
2023/09/30 02:58:40;;;;;;;6.47;4.22;;;26.90;99.90;;;;;;5050515;28;20251;-75
2023/09/30 03:01:13;;;;;;;9.00;4.15;;;26.60;99.90;;;;;;5041687;28;20209;-78
2023/09/30 03:03:44;;;;;;;7.75;4.25;;;26.40;99.90;;;;;;5045690;28;20205;-74
2023/09/30 03:06:15;;;;;;;6.78;4.45;;;26.50;99.90;;;;;;5045489;28;20217;-77
2023/09/30 03:08:48;;;;;;;8.43;4.70;;;26.60;99.90;;;;;;5038079;28;20209;-76
2023/09/30 03:11:19;;;;;;;7.55;4.43;;;26.60;99.90;;;;;;5062031;28;20215;-73
2023/09/30 03:13:50;;;;;;;9.80;4.68;;;26.60;99.90;;;;;;5052852;28;20204;-78
2023/09/30 03:16:22;;;;;;;6.35;3.95;;;26.50;99.90;;;;;;5052858;28;20197;-76
2023/09/30 03:18:55;;;;;;;6.10;4.32;;;26.40;99.90;;;;;;5050119;28;20514;-73
2023/09/30 03:21:26;;;;;;;8.02;4.82;;;26.50;99.90;;;;;;5045567;28;20661;-74
2023/09/30 03:23:59;;;;;;;7.57;4.55;;;26.60;99.90;;;;;;5044675;28;20201;-78
2023/09/30 03:26:32;;;;;;;11.65;4.88;;;26.50;99.90;;;;;;5047153;28;20201;-79
2023/09/30 03:29:05;;;;;;;9.00;4.78;;;26.30;99.90;;;;;;5044377;28;20193;-78
2023/09/30 03:31:36;;;;;;;7.60;4.53;;;26.20;99.90;;;;;;5042912;28;20202;-74
2023/09/30 03:34:08;;;;;;;7.07;4.65;;;26.20;99.90;;;;;;5034416;28;20186;-75
2023/09/30 03:36:41;;;;;;;8.00;4.70;;;26.20;99.90;;;;;;5050199;28;20220;-74
2023/09/30 03:39:15;;;;;;;9.15;5.00;;;26.20;99.90;;;;;;5049597;28;20230;-77
2023/09/30 03:41:45;;;;;;;8.75;4.97;;;26.10;99.90;;;;;;5050761;28;20642;-77
2023/09/30 03:44:16;;;;;;;8.70;4.75;;;26.10;99.90;;;;;;5049935;28;20284;-77
2023/09/30 03:46:47;;;;;;;7.82;4.82;;;26.00;99.90;;;;;;5037547;28;20210;-77
2023/09/30 03:49:19;;;;;;;5.90;4.93;;;26.00;99.90;;;;;;5048606;28;20204;-78
2023/09/30 03:51:50;;;;;;;8.63;5.10;;;26.00;99.90;;;;;;5049711;28;20193;-76
2023/09/30 03:54:23;;;;;;;8.98;5.15;;;26.10;99.90;;;;;;5042180;28;20270;-79
2023/09/30 03:56:54;;;;;;;9.75;5.35;;;26.00;99.90;;;;;;5042516;28;20193;-73
2023/09/30 03:59:26;;;;;;;7.15;4.63;;;25.90;99.90;;;;;;5046076;28;20213;-73
2023/09/30 04:01:58;;;;;;;9.05;5.00;;;26.00;99.90;;;;;;5045471;28;20224;-73
2023/09/30 04:04:29;;;;;;;8.77;5.05;;;26.00;99.90;;;;;;5047926;28;20206;-78
2023/09/30 04:07:00;;;;;;;7.15;4.53;;;26.10;99.90;;;;;;5041910;28;20602;-77
2023/09/30 04:09:33;;;;;;;6.10;4.32;;;26.20;99.90;;;;;;5048396;28;20229;-78
2023/09/30 04:12:03;;;;;;;7.10;4.72;;;26.20;99.90;;;;;;5047863;28;20196;-75
2023/09/30 04:14:34;;;;;;;6.18;4.80;;;26.10;99.90;;;;;;5049685;28;20194;-78
2023/09/30 04:17:05;;;;;;;7.88;4.70;;;26.20;99.90;;;;;;5050576;28;20189;-78
2023/09/30 04:19:36;;;;;;;7.80;4.68;;;26.20;99.90;;;;;;5048661;28;20673;-78
2023/09/30 04:22:07;;;;;;;7.43;4.57;;;26.10;99.90;;;;;;5049382;28;20197;-76
2023/09/30 04:24:41;;;;;;;8.52;4.72;;;26.10;99.90;;;;;;5049405;28;20189;-78
2023/09/30 04:27:12;;;;;;;6.82;4.25;;;26.20;99.90;;;;;;5050418;28;20190;-77
2023/09/30 04:29:43;;;;;;;6.28;4.30;;;26.20;99.90;;;;;;5050593;28;20646;-76
2023/09/30 04:32:13;;;;;;;7.25;4.32;;;26.20;99.90;;;;;;5050550;28;20217;-77
2023/09/30 04:34:44;;;;;;;6.82;4.10;;;26.20;99.90;;;;;;5050582;28;20182;-77
2023/09/30 04:37:15;;;;;;;9.32;4.35;;;26.10;99.90;;;;;;5050844;28;20182;-78
2023/09/30 04:39:48;;;;;;;10.77;4.00;;;26.10;99.90;;;;;;5051515;28;20224;-77
2023/09/30 04:42:19;;;;;;;9.15;3.80;;;26.10;99.90;;;;;;5052511;28;20189;-74
2023/09/30 04:44:50;;;;;;;9.35;3.78;;;26.10;99.90;;;;;;5052455;28;20537;-76
2023/09/30 04:47:21;;;;;;;8.02;4.00;;;26.10;99.90;;;;;;5053626;28;20634;-77
2023/09/30 04:49:52;;;;;;;8.98;3.70;;;26.20;99.90;;;;;;5057310;28;20186;-77
2023/09/30 04:52:25;;;;;;;5.97;4.18;;;26.20;99.90;;;;;;5056432;28;20256;-78
2023/09/30 04:54:59;;;;;;;6.95;3.85;;;26.20;99.90;;;;;;5056226;28;20250;-77
2023/09/30 04:57:31;;;;;;;5.63;3.88;;;26.20;99.90;;;;;;5056380;28;20240;-77
2023/09/30 05:00:10;;;;;;;7.35;3.78;;;26.00;99.90;;;;;;5056376;28;20246;-78
2023/09/30 05:02:41;;;;;;;8.85;4.05;;;26.00;99.90;;;;;;5054864;28;20276;-78
2023/09/30 05:05:12;;;;;;;6.90;3.90;;;25.80;99.90;;;;;;5056053;28;20553;-78
2023/09/30 05:07:43;;;;;;;7.57;3.45;;;26.00;99.90;;;;;;5054934;28;20193;-78
2023/09/30 05:10:17;;;;;;;10.10;4.05;;;26.00;99.90;;;;;;5055732;28;20237;-77
2023/09/30 05:12:47;;;;;;;11.35;4.00;;;26.00;99.90;;;;;;5055540;28;20186;-78
2023/09/30 05:15:19;;;;;;;7.55;4.18;;;26.00;99.90;;;;;;5063458;28;20205;-79
2023/09/30 05:17:50;;;;;;;7.72;3.75;;;26.00;99.90;;;;;;5076183;28;20185;-79
2023/09/30 05:20:22;;;;;;;7.30;3.88;;;26.00;99.90;;;;;;5075923;28;20197;-77
2023/09/30 05:22:53;;;;;;;10.18;3.97;;;25.80;99.90;;;;;;5075671;28;20193;-79
2023/09/30 05:25:27;;;;;;;9.50;4.60;;;25.60;99.90;;;;;;5075639;28;20191;-80
2023/09/30 05:27:58;;;;;;;7.53;3.67;;;25.60;99.90;;;;;;5075724;28;20192;-80
2023/09/30 05:30:29;;;;;;;6.82;3.97;;;25.60;99.90;;;;;;5069894;28;20198;-79
2023/09/30 05:33:00;;;;;;;9.75;4.20;;;25.60;99.90;;;;;;5055732;28;20216;-80
2023/09/30 05:35:31;;;;;;;11.55;4.18;;;25.40;99.90;;;;;;5055578;28;20194;-79
2023/09/30 05:38:03;;;;;;;6.60;3.90;;;25.40;99.90;;;;;;5054206;28;20217;-79
2023/09/30 05:40:36;;;;;;;7.80;4.13;;;25.20;99.90;;;;;;5055515;28;20194;-80
2023/09/30 05:43:07;;;;;;;6.78;3.80;;;25.20;99.90;;;;;;5055583;28;20200;-79
2023/09/30 05:45:38;;;;;;;10.68;4.30;;;25.00;99.90;;;;;;5055580;28;20264;-80
2023/09/30 05:48:09;;;;;;;11.10;4.03;;;25.00;99.90;;;;;;5055956;28;20201;-79
2023/09/30 05:50:42;;;;;;;8.75;4.43;;;25.00;99.90;;;;;;5055767;28;20553;-79
2023/09/30 05:53:13;;;;;;;8.98;4.07;;;24.80;99.90;;;;;;5055677;28;20568;-80
2023/09/30 05:55:46;;;;;;;8.82;4.15;;;24.70;99.90;;;;;;5055827;28;20598;-80
2023/09/30 05:58:18;;;;;;;10.63;4.00;;;24.60;99.90;;;;;;5055565;28;20232;-79
2023/09/30 06:00:50;;;;;;;7.85;3.75;;;24.50;99.90;;;;;;5055223;28;20198;-78
2023/09/30 06:03:21;;;;;;;8.18;3.88;;;24.50;99.90;;;;;;5055616;28;20225;-79
2023/09/30 06:05:52;;;;;;;8.00;4.18;;;24.50;99.90;;;;;;5055583;28;20190;-78
2023/09/30 06:08:22;;;;;;;8.77;4.30;;;24.50;99.90;;;;;;5055210;28;20559;-77
2023/09/30 06:10:55;;;;;;;7.07;3.97;;;24.40;99.90;;;;;;5055155;28;20599;-78
2023/09/30 06:13:27;;;;;;;11.32;4.55;;;24.40;99.90;;;;;;5055363;28;20548;-77
2023/09/30 06:15:57;;;;;;;10.18;4.05;;;24.40;99.90;;;;;;5055307;28;20270;-79
2023/09/30 06:18:28;;;;;;;9.18;4.50;;;24.40;99.90;;;;;;5055439;28;20761;-78
2023/09/30 06:20:59;;;;;;;13.30;4.57;;;24.40;99.90;;;;;;5055240;28;20196;-80
2023/09/30 06:23:30;;;;;;;7.80;4.60;;;24.30;99.90;;;;;;5055256;28;20194;-78
2023/09/30 06:26:03;;;;;;;10.50;4.22;;;24.30;99.90;;;;;;5055895;28;20898;-81
2023/09/30 06:28:40;;;;;;;8.27;4.20;;;24.30;99.90;;;;;;5055160;28;20193;-78
2023/09/30 06:31:11;;;;;;;8.30;4.35;;;24.30;99.90;;;;;;5055024;28;20208;-77
2023/09/30 06:33:43;;;;;;;6.93;4.30;;;24.20;99.90;;;;;;5055049;28;20212;-77
2023/09/30 06:36:15;;;;;;;6.72;3.85;;;24.10;99.90;;;;;;5054860;28;20224;-78
2023/09/30 06:38:48;;;;;;;10.55;3.92;;;24.00;99.90;;;;;;5054909;28;20231;-78
2023/09/30 06:41:23;;;;;;;6.25;3.65;;;23.90;99.90;;;;;;5055219;28;20229;-78
2023/09/30 06:43:54;;;;;;;9.15;3.50;;;23.90;99.90;;;;;;5054834;28;20200;-80
2023/09/30 06:46:26;;;;;;;7.13;3.72;;;23.90;99.90;;;;;;5054819;28;20292;-79
2023/09/30 06:48:56;;;;;;;8.57;3.75;;;23.90;99.90;;;;;;5054806;28;20193;-79
2023/09/30 06:51:27;;;;;;;5.47;3.17;;;23.80;99.90;;;;;;5054341;28;20189;-79
2023/09/30 06:53:58;;;;;;;7.38;3.35;;;23.80;99.90;;;;;;5054678;28;20193;-80
2023/09/30 06:56:30;;;;;;;7.03;3.30;;;23.80;99.90;;;;;;5054492;28;20570;-78
2023/09/30 06:59:01;;;;;;;8.30;3.50;;;23.80;99.90;;;;;;5054480;28;20220;-78
2023/09/30 07:01:32;;;;;;;10.73;3.53;;;23.80;99.90;;;;;;5054289;28;20201;-78
2023/09/30 07:04:03;;;;;;;8.02;3.47;;;23.70;99.90;;;;;;5054439;28;20201;-79
2023/09/30 07:06:33;;;;;;;9.25;3.40;;;23.70;99.90;;;;;;5054184;28;20186;-78
2023/09/30 07:09:04;;;;;;;8.25;3.40;;;23.60;99.90;;;;;;5054146;28;20635;-78
2023/09/30 07:11:37;;;;;;;8.35;3.58;;;23.60;99.90;;;;;;5053328;28;20189;-77
2023/09/30 07:14:08;;;;;;;8.95;3.35;;;23.50;99.90;;;;;;5051295;28;20206;-79
2023/09/30 07:16:39;;;;;;;8.10;3.45;;;23.40;99.90;;;;;;5070569;28;20200;-79
2023/09/30 07:19:10;;;;;;;7.70;3.83;;;23.40;99.90;;;;;;5074156;28;20274;-80
2023/09/30 07:21:41;;;;;;;9.57;4.13;;;23.40;99.90;;;;;;5055599;28;20687;-77
2023/09/30 07:24:12;;;;;;;7.60;3.20;;;23.30;99.90;;;;;;5043045;28;20200;-76
2023/09/30 07:26:44;;;;;;;9.10;3.90;;;23.30;99.90;;;;;;5043488;28;20591;-75
2023/09/30 07:29:15;;;;;;;8.57;3.28;;;23.30;99.90;;;;;;5039347;28;20313;-78
2023/09/30 07:31:46;;;;;;;13.88;3.58;;;23.20;99.90;;;;;;5051232;28;20216;-79
2023/09/30 07:34:17;;;;;;;9.80;3.63;;;23.20;99.90;;;;;;5049536;28;20271;-77
2023/09/30 07:36:48;;;;;;;8.20;3.33;;;23.00;99.90;;;;;;5047346;28;20235;-78
2023/09/30 07:39:19;;;;;;;7.95;3.50;;;23.00;99.90;;;;;;5039892;28;20220;-76
2023/09/30 07:41:51;;;;;;;6.63;3.53;;;22.90;99.90;;;;;;5047559;28;20243;-77
2023/09/30 07:44:22;;;;;;;7.57;3.00;;;22.90;99.90;;;;;;5048513;28;20693;-77
2023/09/30 07:46:53;;;;;;;6.63;3.47;;;22.80;99.90;;;;;;5045800;28;20212;-75
2023/09/30 07:49:24;;;;;;;6.47;3.20;;;22.80;99.90;;;;;;5048435;28;20205;-77
2023/09/30 07:51:54;;;;;;;9.63;3.47;;;22.70;99.90;;;;;;5049811;28;20280;-78
2023/09/30 07:54:25;;;;;;;11.80;3.83;;;22.70;99.90;;;;;;5047948;28;20193;-77
2023/09/30 07:56:58;;;;;;;8.20;3.45;;;22.60;99.90;;;;;;5046136;28;20194;-75
2023/09/30 07:59:29;;;;;;;10.05;3.28;;;22.60;99.90;;;;;;5049102;28;20217;-78
2023/09/30 08:02:00;;;;;;;8.82;3.60;;;22.50;99.90;;;;;;5044138;28;20201;-74
2023/09/30 08:04:32;;;;;;;8.77;3.63;;;22.40;99.90;;;;;;5041674;28;20631;-74
2023/09/30 08:07:03;;;;;;;6.78;3.17;;;22.40;99.90;;;;;;5047517;28;20838;-77
2023/09/30 08:09:34;;;;;;;8.65;3.13;;;22.40;99.90;;;;;;5047553;28;20222;-76
2023/09/30 08:12:06;;;;;;;10.35;3.40;;;22.30;99.90;;;;;;5048568;28;20223;-72
2023/09/30 08:14:37;;;;;;;8.30;3.20;;;22.30;99.90;;;;;;5053239;28;20634;-75
2023/09/30 08:17:08;;;;;;;8.35;3.33;;;22.20;99.90;;;;;;5051187;28;20208;-75
2023/09/30 08:19:39;;;;;;;7.45;3.22;;;22.20;99.90;;;;;;5047371;28;20228;-74
2023/09/30 08:22:10;;;;;;;6.72;3.58;;;22.20;99.90;;;;;;5047682;28;20202;-73
2023/09/30 08:24:41;;;;;;;6.45;3.45;;;22.20;99.90;;;;;;5051953;28;20197;-73
2023/09/30 08:27:14;;;;;;;5.93;3.20;;;22.20;99.90;;;;;;5036767;28;20197;-74
2023/09/30 08:29:44;;;;;;;7.43;3.65;;;22.10;99.90;;;;;;5048461;28;20194;-77
2023/09/30 08:32:15;;;;;;;6.78;3.60;;;22.10;99.90;;;;;;5042699;28;20202;-73
2023/09/30 08:34:46;;;;;;;6.13;3.40;;;22.10;99.90;;;;;;5046167;28;20653;-73
2023/09/30 08:37:17;;;;;;;7.25;3.25;;;22.10;99.90;;;;;;5047858;28;20217;-74
2023/09/30 08:39:47;;;;;;;9.13;3.00;;;22.10;99.90;;;;;;5047374;28;20217;-71
2023/09/30 08:42:24;;;;;;;6.93;3.15;;;22.10;99.90;;;;;;5052225;28;20772;-76
2023/09/30 08:44:57;;;;;;;6.40;2.80;;;22.10;99.90;;;;;;5052752;28;20204;-74
2023/09/30 08:47:30;;;;;;;5.93;2.90;;;22.10;99.90;;;;;;5049381;28;20573;-78
2023/09/30 08:50:05;;;;;;;7.13;2.90;;;22.10;99.90;;;;;;5052803;28;20204;-72
2023/09/30 08:52:37;;;;;;;7.55;3.30;;;22.10;99.90;;;;;;5048278;28;20205;-78
2023/09/30 08:55:09;;;;;;;9.45;3.00;;;22.10;99.90;;;;;;5045910;28;20208;-78
2023/09/30 08:57:43;;;;;;;5.15;2.88;;;22.10;99.90;;;;;;5048774;28;20206;-79
2023/09/30 09:00:16;;;;;;;5.60;3.00;;;22.10;99.90;;;;;;5047342;28;20697;-72
2023/09/30 09:02:46;;;;;;;7.38;2.70;;;22.10;99.90;;;;;;5048107;28;20193;-73
2023/09/30 09:05:17;;;;;;;5.53;2.90;;;22.10;99.90;;;;;;5049113;28;20198;-79
2023/09/30 09:07:50;;;;;;;9.23;2.90;;;22.10;99.90;;;;;;5049064;28;20558;-72
2023/09/30 09:10:20;;;;;;;5.93;3.00;;;22.10;99.90;;;;;;5049650;28;20244;-73
2023/09/30 09:12:59;;;;;;;6.63;2.70;;;22.10;99.90;;;;;;5051441;28;20198;-75
2023/09/30 09:15:31;;;;;;;8.45;3.10;;;22.10;99.90;;;;;;5048466;28;20205;-71
2023/09/30 09:18:02;;;;;;;5.95;2.70;;;22.00;99.90;;;;;;5050421;28;20223;-71
2023/09/30 09:20:34;;;;;;;7.55;2.78;;;22.00;99.90;;;;;;5049113;28;20221;-71
2023/09/30 09:23:09;;;;;;;6.57;2.90;;;22.00;99.90;;;;;;5050750;28;20202;-73
2023/09/30 09:25:42;;;;;;;6.47;2.65;;;22.00;99.90;;;;;;5052259;28;20197;-74
2023/09/30 09:28:19;;;;;;;5.95;2.60;;;21.90;99.90;;;;;;5049057;28;20193;-71
2023/09/30 09:30:50;;;;;;;5.90;2.88;;;21.90;99.90;;;;;;5042382;28;20556;-71
2023/09/30 09:33:21;;;;;;;4.90;2.40;;;21.90;99.90;;;;;;5046695;28;20205;-74
2023/09/30 09:35:52;;;;;;;4.93;2.60;;;21.90;99.90;;;;;;5051981;28;20645;-73
2023/09/30 09:38:23;;;;;;;5.72;2.60;;;21.90;99.90;;;;;;5054026;28;20217;-75
2023/09/30 09:40:53;;;;;;;4.93;2.33;;;21.90;99.90;;;;;;5052382;28;20586;-72
2023/09/30 09:43:26;;;;;;;4.25;2.30;;;21.90;99.90;;;;;;5055685;28;20201;-72
2023/09/30 09:46:03;;;;;;;5.40;2.50;;;21.90;99.90;;;;;;5053597;28;20212;-72
2023/09/30 09:48:34;;;;;;;5.78;2.40;;;21.90;99.90;;;;;;5055148;28;20254;-71
2023/09/30 09:51:07;;;;;;;6.30;2.50;;;21.90;99.90;;;;;;5052847;28;20205;-71
2023/09/30 09:53:40;;;;;;;5.13;2.50;;;21.90;99.90;;;;;;5052343;28;20197;-71
2023/09/30 09:56:12;;;;;;;4.75;2.55;;;21.90;99.90;;;;;;5046030;28;20197;-71
2023/09/30 09:58:45;;;;;;;6.28;2.42;;;21.90;99.90;;;;;;5053510;28;20201;-71
2023/09/30 10:01:16;;;;;;;6.20;2.70;;;21.80;99.90;;;;;;5045556;28;20218;-72
2023/09/30 10:03:47;;;;;;;6.07;2.60;;;21.80;99.90;;;;;;5054268;28;20200;-71
2023/09/30 10:06:20;;;;;;;4.55;2.10;;;21.80;99.90;;;;;;5054326;28;20198;-74
2023/09/30 10:08:54;;;;;;;6.30;2.45;;;21.70;99.90;;;;;;5046209;28;20284;-74
2023/09/30 10:11:26;;;;;;;6.53;2.50;;;21.70;99.90;;;;;;5043418;28;20202;-72
2023/09/30 10:14:03;;;;;;;4.00;2.13;;;21.70;99.90;;;;;;5043078;28;20229;-78
2023/09/30 10:16:53;;;;;;;5.38;2.67;;;21.60;99.90;;;;;;5049041;28;20202;-79
2023/09/30 10:19:24;;;;;;;5.10;2.85;;;21.60;99.90;;;;;;5045025;28;20780;-78
2023/09/30 10:22:25;;;;;;;6.90;2.50;;;21.50;99.90;;;;;;5045939;28;20218;-79
2023/09/30 10:24:59;;;;;;;4.10;2.47;;;21.50;99.90;;;;;;5044005;28;20207;-74
2023/09/30 10:27:37;;;;;;;5.18;2.60;;;21.40;99.90;;;;;;5043136;28;20273;-76
2023/09/30 10:30:16;;;;;;;7.00;2.60;;;21.40;99.90;;;;;;5050211;28;20712;-78
2023/09/30 10:33:16;;;;;;;5.13;2.58;;;21.40;99.90;;;;;;5046958;28;20649;-77
2023/09/30 10:35:47;;;;;;;5.45;2.78;;;21.30;99.90;;;;;;5048680;28;20287;-78
2023/09/30 10:38:45;;;;;;;5.13;2.60;;;21.30;99.90;;;;;;5053999;28;20304;-77
2023/09/30 10:41:54;;;;;;;7.25;2.80;;;21.20;99.90;;;;;;5061160;28;20220;-79
2023/09/30 10:44:38;;;;;;;5.40;2.90;;;21.20;99.90;;;;;;5051738;28;20213;-77
2023/09/30 10:47:42;;;;;;;7.25;3.10;;;21.10;99.90;;;;;;5049758;28;20208;-77
2023/09/30 10:50:44;;;;;;;5.72;3.13;;;21.00;99.90;;;;;;5051474;28;20213;-77
2023/09/30 10:53:16;;;;;;;5.63;3.10;;;21.00;99.90;;;;;;5050371;28;20193;-76
2023/09/30 10:55:47;;;;;;;6.15;3.22;;;21.00;99.90;;;;;;5051217;28;20192;-76
2023/09/30 10:58:18;;;;;;;5.43;2.83;;;20.90;99.90;;;;;;5053286;28;20547;-78
2023/09/30 11:00:57;;;;;;;5.68;2.95;;;20.90;99.90;;;;;;5047511;28;20700;-78
2023/09/30 11:03:30;;;;;;;5.93;3.10;;;20.90;99.90;;;;;;5049342;28;20538;-78
2023/09/30 11:06:01;;;;;;;6.03;2.95;;;20.80;99.90;;;;;;5052041;28;20564;-79
2023/09/30 11:08:32;;;;;;;5.85;3.00;;;20.80;99.90;;;;;;5053142;28;20201;-78
2023/09/30 11:11:07;;;;;;;7.40;3.10;;;20.80;99.90;;;;;;5051036;28;20233;-78
2023/09/30 11:13:39;;;;;;;4.53;2.83;;;20.70;99.90;;;;;;5051112;28;20205;-79
2023/09/30 11:16:10;;;;;;;8.10;3.42;;;20.70;99.90;;;;;;5050874;28;20201;-78
2023/09/30 11:18:43;;;;;;;7.20;3.05;;;20.60;99.90;;;;;;5051386;28;20201;-79
2023/09/30 11:21:14;;;;;;;10.00;3.90;;;20.60;99.90;;;;;;5051235;28;20217;-79
2023/09/30 11:23:45;;;;;;;9.30;4.95;;;20.50;99.90;;;;;;5050835;28;20201;-74
2023/09/30 11:26:16;;;;;;;8.40;4.78;;;20.40;99.90;;;;;;5052281;28;20190;-73
2023/09/30 11:28:48;;;;;;;7.47;4.20;;;20.40;99.90;;;;;;5049531;28;20200;-75
2023/09/30 11:31:19;;;;;;;7.38;4.22;;;20.40;99.90;;;;;;5051940;28;20270;-75
2023/09/30 11:33:57;;;;;;;8.85;4.20;;;20.30;99.90;;;;;;5048450;28;20280;-73
2023/09/30 11:36:28;;;;;;;7.68;4.18;;;20.30;99.90;;;;;;5051355;28;20260;-72
2023/09/30 11:38:59;;;;;;;6.13;3.67;;;20.30;99.90;;;;;;5052323;28;20197;-73
2023/09/30 11:41:38;;;;;;;10.98;3.75;;;20.30;99.90;;;;;;5052495;28;20226;-76
2023/09/30 11:44:10;;;;;;;9.93;3.53;;;20.20;99.90;;;;;;5051130;28;20189;-76
2023/09/30 11:46:54;;;;;;;6.90;3.20;;;20.20;99.90;;;;;;5044784;28;20195;-78
2023/09/30 11:49:34;;;;;;;9.88;3.60;;;20.20;99.90;;;;;;5048014;28;20193;-78
2023/09/30 11:52:07;;;;;;;5.07;2.97;;;20.20;99.90;;;;;;5048571;28;20713;-74
2023/09/30 11:54:39;;;;;;;7.95;4.00;;;20.20;99.90;;;;;;5050683;28;20696;-77
2023/09/30 11:57:11;;;;;;;7.45;3.67;;;20.20;99.90;;;;;;5048277;28;20198;-77
2023/09/30 11:59:42;;;;;;;10.27;4.28;;;20.20;99.90;;;;;;5050444;28;20200;-79
2023/09/30 12:02:14;;;;;;;6.53;3.53;;;20.20;99.90;;;;;;5050618;28;20275;-78
2023/09/30 12:04:49;;;;;;;8.68;3.78;;;20.20;99.90;;;;;;5053124;28;20224;-78
2023/09/30 12:07:19;;;;;;;7.72;3.60;;;20.20;99.90;;;;;;5051598;28;20242;-77
2023/09/30 12:09:50;;;;;;;4.72;3.20;;;20.10;99.90;;;;;;5052590;28;20579;-78
2023/09/30 12:12:21;;;;;;;7.22;3.72;;;20.10;99.90;;;;;;5052769;28;20192;-78
2023/09/30 12:14:52;;;;;;;8.05;3.10;;;20.10;99.90;;;;;;5050549;28;20200;-78
2023/09/30 12:17:23;;;;;;;6.03;3.28;;;20.10;99.90;;;;;;5050098;28;20232;-78
2023/09/30 12:19:55;;;;;;;6.13;3.30;;;20.10;99.90;;;;;;5050696;28;20213;-77
2023/09/30 12:22:26;;;;;;;7.32;3.35;;;20.00;99.90;;;;;;5050037;28;20212;-78
2023/09/30 12:24:57;;;;;;;4.57;2.97;;;20.00;99.90;;;;;;5047155;28;20673;-78
2023/09/30 12:27:28;;;;;;;8.20;3.67;;;19.90;99.90;;;;;;5049334;28;20236;-78
2023/09/30 12:29:59;;;;;;;7.03;3.78;;;19.90;99.90;;;;;;5053131;28;20193;-77
2023/09/30 12:32:30;;;;;;;6.20;3.25;;;19.80;99.90;;;;;;5049473;28;20197;-78
2023/09/30 12:35:04;;;;;;;6.75;3.35;;;19.80;99.90;;;;;;5048750;28;20287;-78
2023/09/30 12:37:35;;;;;;;6.15;3.45;;;19.80;99.90;;;;;;5051362;28;20225;-77
2023/09/30 12:40:06;;;;;;;5.88;3.45;;;19.80;99.90;;;;;;5051733;28;20676;-78
2023/09/30 12:42:37;;;;;;;7.47;3.55;;;19.80;99.90;;;;;;5052860;28;20568;-78
2023/09/30 12:45:08;;;;;;;7.13;3.90;;;19.80;99.90;;;;;;5062031;28;20197;-73
2023/09/30 12:47:39;;;;;;;7.93;4.30;;;19.70;99.90;;;;;;5065219;28;20661;-78
2023/09/30 12:50:12;;;;;;;6.35;3.58;;;19.70;99.90;;;;;;5051582;28;20684;-78
2023/09/30 12:52:44;;;;;;;10.20;4.18;;;19.70;99.90;;;;;;5051950;28;20251;-78
2023/09/30 12:55:15;;;;;;;9.15;4.00;;;19.70;99.90;;;;;;5052079;28;20229;-78
2023/09/30 12:57:46;;;;;;;8.82;3.92;;;19.60;99.90;;;;;;5051446;28;20193;-78
2023/09/30 13:00:27;;;;;;;7.80;3.95;;;19.60;99.90;;;;;;5050697;28;20220;-73
2023/09/30 13:03:07;;;;;;;10.88;4.53;;;19.60;99.90;;;;;;5042178;28;20533;-77
2023/09/30 13:05:54;;;;;;;12.80;4.00;;;19.60;99.90;;;;;;5050153;28;20212;-78
2023/09/30 13:08:25;;;;;;;6.70;3.92;;;19.60;99.90;;;;;;5050341;28;20251;-77
2023/09/30 13:10:56;;;;;;;9.55;3.80;;;19.60;99.90;;;;;;5041310;28;20233;-78
2023/09/30 13:13:37;;;;;;;9.43;3.67;;;19.50;99.90;;;;;;5052138;28;20193;-76